Airfield :
LOGIN :

Register | Disclaimer

   EN    FR    IT 

 










Legend :    VFR   Marginal VFR   IFR   Intensive IFR   Very Intensive IFR
Visi :
Ceiling :
>= 8 km
>= 3000ft
5 to 8 km
1000 to 3000 ft
1500m to 5 km
500 to 1000 ft
800 to 1500m
200 to 500 ft
< 800m
< 200 ft
Symbols :   Thunderstorms  Fog  Heavy snow  Heavy precipitations  Wind > 20 kt
SIGMETs :     Misc.  Thunderstorms  Icing  Turbulence  Mountain Waves  Volcanic Ashes






- Airport Elevation : 157 ft
- IATA code : LIL


LFQQ - Lille Lesquin

CURRENT METAR :
  • 270830Z AUTO 13013KT 7000 -RA OVC007 02/01 Q0995 TEMPO 2000 SN OVC004

EXPIRED METARs :
  • 270800Z AUTO 14013KT 7000 -RA OVC008 03/02 Q0997 TEMPO 2000 SN OVC004
  • 270730Z AUTO 15013KT 8000 -RA OVC009 03/02 Q0998 TEMPO 2000 SN OVC004
  • 270700Z AUTO 15011KT 9000 -RA OVC010 03/02 Q0999 TEMPO 2000 SN OVC015
  • 270630Z AUTO 16011KT 9999 -RA BKN012 BKN035 OVC044 03/02 Q0999 TEMPO 2000 SN OVC015
  • 270600Z AUTO 17010KT 9999 -RA BKN013 BKN018 BKN025 03/02 Q1000 BECMG RA OVC015

TAF TAF LFQQ
Valid from the 27 at 06:00 until the 28 at 12:00 UTC


270500Z 2706/2812 15012KT 6000 RA OVC015
TEMPO 2708/2713 4000 RA OVC007
PROB40
TEMPO 2708/2713 2000 SN OVC004
BECMG 2711/2713 35013KT
BECMG 2714/2716 33020G35KT NSW BKN035
BECMG 2717/2719 28007KT
BECMG 2806/2809 18012KT
ATIS : +33 3 20 16 19 54



MET'MAP, your aeronautical weather chart ! - Copyright ORBIFLY December 2007 - Disclaimer

ORBIFLY MET'MAP TEAM :

Programming & Development : Alexandra Zaïnal
Concept & original design : Baudouin d'Aumeries
Assistance for programming : Marc-Olivier Méhu
Technical & hardware support : Manuel Goepfert

Contact : metmap@orbifly.com




SOURCES & CREDITS :

   NOAA